sensor_id;sensor_type;location;lat;lon;timestamp;P1;durP1;ratioP1;P2;durP2;ratioP2
16468;SDS011;8345;50.902;6.956;2023-11-19T00:00:45;0.87;;;0.60;;
16468;SDS011;8345;50.902;6.956;2023-11-19T00:03:11;1.70;;;1.07;;
16468;SDS011;8345;50.902;6.956;2023-11-19T00:05:38;0.87;;;0.73;;
16468;SDS011;8345;50.902;6.956;2023-11-19T00:08:07;1.00;;;0.60;;
16468;SDS011;8345;50.902;6.956;2023-11-19T00:10:34;0.80;;;0.70;;
16468;SDS011;8345;50.902;6.956;2023-11-19T00:13:01;0.70;;;0.60;;
16468;SDS011;8345;50.902;6.956;2023-11-19T00:15:29;1.60;;;0.73;;
16468;SDS011;8345;50.902;6.956;2023-11-19T00:17:57;1.97;;;1.17;;
16468;SDS011;8345;50.902;6.956;2023-11-19T00:20:24;1.10;;;0.80;;
16468;SDS011;8345;50.902;6.956;2023-11-19T00:22:51;2.03;;;1.83;;
16468;SDS011;8345;50.902;6.956;2023-11-19T00:25:20;1.53;;;1.10;;
16468;SDS011;8345;50.902;6.956;2023-11-19T00:27:47;1.97;;;1.80;;
16468;SDS011;8345;50.902;6.956;2023-11-19T00:30:15;1.47;;;1.20;;
16468;SDS011;8345;50.902;6.956;2023-11-19T00:32:42;4.17;;;3.23;;
16468;SDS011;8345;50.902;6.956;2023-11-19T00:35:10;3.37;;;1.00;;
16468;SDS011;8345;50.902;6.956;2023-11-19T00:37:39;2.43;;;2.23;;
16468;SDS011;8345;50.902;6.956;2023-11-19T00:40:08;1.20;;;0.93;;
16468;SDS011;8345;50.902;6.956;2023-11-19T00:42:37;3.93;;;2.30;;
16468;SDS011;8345;50.902;6.956;2023-11-19T00:45:04;5.60;;;3.53;;
16468;SDS011;8345;50.902;6.956;2023-11-19T00:47:33;5.53;;;2.97;;
16468;SDS011;8345;50.902;6.956;2023-11-19T00:50:00;2.27;;;1.93;;
16468;SDS011;8345;50.902;6.956;2023-11-19T00:52:28;2.43;;;1.67;;
16468;SDS011;8345;50.902;6.956;2023-11-19T00:54:55;1.23;;;1.13;;
16468;SDS011;8345;50.902;6.956;2023-11-19T00:57:23;1.97;;;1.77;;
16468;SDS011;8345;50.902;6.956;2023-11-19T00:59:53;0.70;;;0.70;;
16468;SDS011;8345;50.902;6.956;2023-11-19T01:02:20;1.27;;;0.80;;
16468;SDS011;8345;50.902;6.956;2023-11-19T01:04:47;1.20;;;0.60;;
16468;SDS011;8345;50.902;6.956;2023-11-19T01:07:14;1.23;;;0.60;;
16468;SDS011;8345;50.902;6.956;2023-11-19T01:09:41;1.00;;;0.70;;
16468;SDS011;8345;50.902;6.956;2023-11-19T01:12:09;1.30;;;0.73;;
16468;SDS011;8345;50.902;6.956;2023-11-19T01:14:36;1.13;;;0.80;;
16468;SDS011;8345;50.902;6.956;2023-11-19T01:17:05;1.60;;;0.60;;
16468;SDS011;8345;50.902;6.956;2023-11-19T01:19:32;1.37;;;1.07;;
16468;SDS011;8345;50.902;6.956;2023-11-19T01:21:59;1.10;;;0.67;;
16468;SDS011;8345;50.902;6.956;2023-11-19T01:24:26;0.80;;;0.80;;
16468;SDS011;8345;50.902;6.956;2023-11-19T01:26:56;1.97;;;1.63;;
16468;SDS011;8345;50.902;6.956;2023-11-19T01:29:25;0.80;;;0.80;;
16468;SDS011;8345;50.902;6.956;2023-11-19T01:31:52;1.37;;;0.80;;
16468;SDS011;8345;50.902;6.956;2023-11-19T01:34:20;1.33;;;0.67;;
16468;SDS011;8345;50.902;6.956;2023-11-19T01:36:47;0.63;;;0.63;;
16468;SDS011;8345;50.902;6.956;2023-11-19T01:39:14;1.53;;;0.70;;
16468;SDS011;8345;50.902;6.956;2023-11-19T01:41:42;0.73;;;0.60;;
16468;SDS011;8345;50.902;6.956;2023-11-19T01:44:09;1.17;;;0.80;;
16468;SDS011;8345;50.902;6.956;2023-11-19T01:46:38;2.43;;;0.80;;
16468;SDS011;8345;50.902;6.956;2023-11-19T01:49:07;2.47;;;2.10;;
16468;SDS011;8345;50.902;6.956;2023-11-19T01:51:37;0.80;;;0.80;;
16468;SDS011;8345;50.902;6.956;2023-11-19T01:54:05;2.07;;;1.00;;
16468;SDS011;8345;50.902;6.956;2023-11-19T01:56:32;1.93;;;1.10;;
16468;SDS011;8345;50.902;6.956;2023-11-19T01:59:00;2.97;;;1.90;;
16468;SDS011;8345;50.902;6.956;2023-11-19T02:01:29;2.57;;;1.60;;
16468;SDS011;8345;50.902;6.956;2023-11-19T02:03:57;2.63;;;1.20;;
16468;SDS011;8345;50.902;6.956;2023-11-19T02:06:24;1.73;;;1.27;;
16468;SDS011;8345;50.902;6.956;2023-11-19T02:08:54;1.90;;;1.10;;
16468;SDS011;8345;50.902;6.956;2023-11-19T02:11:21;2.57;;;1.63;;
16468;SDS011;8345;50.902;6.956;2023-11-19T02:13:54;3.33;;;1.20;;
16468;SDS011;8345;50.902;6.956;2023-11-19T02:16:21;2.20;;;1.10;;
16468;SDS011;8345;50.902;6.956;2023-11-19T02:18:49;4.60;;;1.40;;
16468;SDS011;8345;50.902;6.956;2023-11-19T02:21:16;2.43;;;1.30;;
16468;SDS011;8345;50.902;6.956;2023-11-19T02:23:44;4.13;;;1.40;;
16468;SDS011;8345;50.902;6.956;2023-11-19T02:26:14;5.07;;;2.67;;
16468;SDS011;8345;50.902;6.956;2023-11-19T02:28:46;3.77;;;1.40;;
16468;SDS011;8345;50.902;6.956;2023-11-19T02:31:13;3.57;;;1.10;;
16468;SDS011;8345;50.902;6.956;2023-11-19T02:33:41;3.40;;;1.40;;
16468;SDS011;8345;50.902;6.956;2023-11-19T02:36:08;4.67;;;1.70;;
16468;SDS011;8345;50.902;6.956;2023-11-19T02:38:36;3.87;;;1.57;;
16468;SDS011;8345;50.902;6.956;2023-11-19T02:41:03;4.67;;;1.70;;
16468;SDS011;8345;50.902;6.956;2023-11-19T02:43:31;3.53;;;1.27;;
16468;SDS011;8345;50.902;6.956;2023-11-19T02:46:01;4.07;;;1.83;;
16468;SDS011;8345;50.902;6.956;2023-11-19T02:48:30;4.20;;;2.00;;
16468;SDS011;8345;50.902;6.956;2023-11-19T02:50:57;6.80;;;1.50;;
16468;SDS011;8345;50.902;6.956;2023-11-19T02:53:24;6.33;;;1.70;;
16468;SDS011;8345;50.902;6.956;2023-11-19T02:55:54;4.77;;;1.93;;
16468;SDS011;8345;50.902;6.956;2023-11-19T02:58:26;4.47;;;2.13;;
16468;SDS011;8345;50.902;6.956;2023-11-19T03:00:53;7.90;;;2.73;;
16468;SDS011;8345;50.902;6.956;2023-11-19T03:03:25;4.40;;;1.80;;
16468;SDS011;8345;50.902;6.956;2023-11-19T03:05:56;7.17;;;2.37;;
16468;SDS011;8345;50.902;6.956;2023-11-19T03:08:23;5.63;;;1.80;;
16468;SDS011;8345;50.902;6.956;2023-11-19T03:10:50;6.23;;;2.20;;
16468;SDS011;8345;50.902;6.956;2023-11-19T03:13:19;5.20;;;2.30;;
16468;SDS011;8345;50.902;6.956;2023-11-19T03:15:47;5.80;;;2.27;;
16468;SDS011;8345;50.902;6.956;2023-11-19T03:18:14;6.87;;;1.90;;
16468;SDS011;8345;50.902;6.956;2023-11-19T03:20:42;10.30;;;2.73;;
16468;SDS011;8345;50.902;6.956;2023-11-19T03:23:10;8.27;;;2.63;;
16468;SDS011;8345;50.902;6.956;2023-11-19T03:25:37;5.53;;;2.50;;
16468;SDS011;8345;50.902;6.956;2023-11-19T03:28:04;7.30;;;2.77;;
16468;SDS011;8345;50.902;6.956;2023-11-19T03:30:31;6.53;;;2.53;;
16468;SDS011;8345;50.902;6.956;2023-11-19T03:32:59;7.70;;;2.80;;
16468;SDS011;8345;50.902;6.956;2023-11-19T03:35:26;8.17;;;2.30;;
16468;SDS011;8345;50.902;6.956;2023-11-19T03:37:55;5.80;;;2.30;;
16468;SDS011;8345;50.902;6.956;2023-11-19T03:40:22;6.53;;;2.40;;
16468;SDS011;8345;50.902;6.956;2023-11-19T03:42:50;8.30;;;2.63;;
16468;SDS011;8345;50.902;6.956;2023-11-19T03:45:17;7.00;;;2.60;;
16468;SDS011;8345;50.902;6.956;2023-11-19T03:47:44;8.80;;;2.70;;
16468;SDS011;8345;50.902;6.956;2023-11-19T03:50:11;9.03;;;2.53;;
16468;SDS011;8345;50.902;6.956;2023-11-19T03:52:40;8.77;;;3.00;;
16468;SDS011;8345;50.902;6.956;2023-11-19T03:55:09;8.93;;;2.23;;
16468;SDS011;8345;50.902;6.956;2023-11-19T03:57:37;6.23;;;2.70;;
16468;SDS011;8345;50.902;6.956;2023-11-19T04:00:05;9.97;;;2.67;;
16468;SDS011;8345;50.902;6.956;2023-11-19T04:02:35;7.13;;;2.60;;
16468;SDS011;8345;50.902;6.956;2023-11-19T04:05:02;10.07;;;2.43;;
16468;SDS011;8345;50.902;6.956;2023-11-19T04:07:30;5.37;;;1.93;;
16468;SDS011;8345;50.902;6.956;2023-11-19T04:09:57;8.47;;;2.37;;
16468;SDS011;8345;50.902;6.956;2023-11-19T04:12:26;6.77;;;2.20;;
16468;SDS011;8345;50.902;6.956;2023-11-19T04:14:53;7.43;;;2.40;;
16468;SDS011;8345;50.902;6.956;2023-11-19T04:17:21;6.10;;;2.10;;
16468;SDS011;8345;50.902;6.956;2023-11-19T04:19:49;7.27;;;2.30;;
16468;SDS011;8345;50.902;6.956;2023-11-19T04:22:16;9.50;;;2.17;;
16468;SDS011;8345;50.902;6.956;2023-11-19T04:24:43;8.30;;;2.20;;
16468;SDS011;8345;50.902;6.956;2023-11-19T04:27:10;8.17;;;1.90;;
16468;SDS011;8345;50.902;6.956;2023-11-19T04:29:39;6.07;;;2.13;;
16468;SDS011;8345;50.902;6.956;2023-11-19T04:32:06;8.27;;;2.20;;
16468;SDS011;8345;50.902;6.956;2023-11-19T04:34:34;8.00;;;2.57;;
16468;SDS011;8345;50.902;6.956;2023-11-19T04:37:02;7.70;;;3.20;;
16468;SDS011;8345;50.902;6.956;2023-11-19T04:39:29;12.57;;;3.13;;
16468;SDS011;8345;50.902;6.956;2023-11-19T04:41:56;9.93;;;2.47;;
16468;SDS011;8345;50.902;6.956;2023-11-19T04:44:24;9.97;;;2.57;;
16468;SDS011;8345;50.902;6.956;2023-11-19T04:46:53;10.73;;;2.33;;
16468;SDS011;8345;50.902;6.956;2023-11-19T04:49:20;7.13;;;2.50;;
16468;SDS011;8345;50.902;6.956;2023-11-19T04:51:47;9.30;;;2.43;;
16468;SDS011;8345;50.902;6.956;2023-11-19T04:54:15;4.93;;;2.30;;
16468;SDS011;8345;50.902;6.956;2023-11-19T04:56:44;9.00;;;2.37;;
16468;SDS011;8345;50.902;6.956;2023-11-19T04:59:12;7.87;;;2.20;;
16468;SDS011;8345;50.902;6.956;2023-11-19T05:01:39;5.97;;;2.00;;
16468;SDS011;8345;50.902;6.956;2023-11-19T05:04:08;10.00;;;2.47;;
16468;SDS011;8345;50.902;6.956;2023-11-19T05:06:35;8.30;;;2.67;;
16468;SDS011;8345;50.902;6.956;2023-11-19T05:09:03;5.17;;;2.20;;
16468;SDS011;8345;50.902;6.956;2023-11-19T05:11:32;9.43;;;2.20;;
16468;SDS011;8345;50.902;6.956;2023-11-19T05:14:02;6.33;;;2.70;;
16468;SDS011;8345;50.902;6.956;2023-11-19T05:16:30;6.40;;;2.30;;
16468;SDS011;8345;50.902;6.956;2023-11-19T05:18:57;6.27;;;2.33;;
16468;SDS011;8345;50.902;6.956;2023-11-19T05:21:26;9.77;;;2.80;;
16468;SDS011;8345;50.902;6.956;2023-11-19T05:23:53;6.60;;;2.47;;
16468;SDS011;8345;50.902;6.956;2023-11-19T05:26:20;9.27;;;3.03;;
16468;SDS011;8345;50.902;6.956;2023-11-19T05:28:48;7.07;;;2.73;;
16468;SDS011;8345;50.902;6.956;2023-11-19T05:31:15;7.20;;;2.47;;
16468;SDS011;8345;50.902;6.956;2023-11-19T05:33:43;8.57;;;2.87;;
16468;SDS011;8345;50.902;6.956;2023-11-19T05:36:10;7.17;;;2.73;;
16468;SDS011;8345;50.902;6.956;2023-11-19T05:38:40;9.03;;;2.67;;
16468;SDS011;8345;50.902;6.956;2023-11-19T05:41:07;9.37;;;3.30;;
16468;SDS011;8345;50.902;6.956;2023-11-19T05:43:34;11.73;;;3.00;;
16468;SDS011;8345;50.902;6.956;2023-11-19T05:46:02;11.37;;;3.07;;
16468;SDS011;8345;50.902;6.956;2023-11-19T05:48:30;10.80;;;3.03;;
16468;SDS011;8345;50.902;6.956;2023-11-19T05:50:57;12.27;;;3.20;;
16468;SDS011;8345;50.902;6.956;2023-11-19T05:53:25;8.63;;;3.30;;
16468;SDS011;8345;50.902;6.956;2023-11-19T05:55:53;13.83;;;3.33;;
16468;SDS011;8345;50.902;6.956;2023-11-19T05:58:22;13.80;;;3.83;;
16468;SDS011;8345;50.902;6.956;2023-11-19T06:00:51;13.87;;;3.10;;
16468;SDS011;8345;50.902;6.956;2023-11-19T06:03:19;10.20;;;3.30;;
16468;SDS011;8345;50.902;6.956;2023-11-19T06:05:46;12.93;;;3.40;;
16468;SDS011;8345;50.902;6.956;2023-11-19T06:08:13;15.67;;;3.50;;
16468;SDS011;8345;50.902;6.956;2023-11-19T06:10:41;10.40;;;3.17;;
16468;SDS011;8345;50.902;6.956;2023-11-19T06:13:10;13.67;;;3.87;;
16468;SDS011;8345;50.902;6.956;2023-11-19T06:15:37;14.33;;;3.47;;
16468;SDS011;8345;50.902;6.956;2023-11-19T06:18:04;11.27;;;3.37;;
16468;SDS011;8345;50.902;6.956;2023-11-19T06:20:32;14.73;;;4.00;;
16468;SDS011;8345;50.902;6.956;2023-11-19T06:22:59;14.37;;;3.23;;
16468;SDS011;8345;50.902;6.956;2023-11-19T06:25:26;13.43;;;3.90;;
16468;SDS011;8345;50.902;6.956;2023-11-19T06:27:53;17.93;;;4.33;;
16468;SDS011;8345;50.902;6.956;2023-11-19T06:30:23;13.00;;;3.47;;
16468;SDS011;8345;50.902;6.956;2023-11-19T06:32:51;18.57;;;3.57;;
16468;SDS011;8345;50.902;6.956;2023-11-19T06:35:18;10.73;;;3.27;;
16468;SDS011;8345;50.902;6.956;2023-11-19T06:37:46;11.30;;;3.73;;
16468;SDS011;8345;50.902;6.956;2023-11-19T06:40:13;13.77;;;4.27;;
16468;SDS011;8345;50.902;6.956;2023-11-19T06:42:40;9.63;;;3.30;;
16468;SDS011;8345;50.902;6.956;2023-11-19T06:45:08;13.43;;;3.67;;
16468;SDS011;8345;50.902;6.956;2023-11-19T06:47:37;16.43;;;4.03;;
16468;SDS011;8345;50.902;6.956;2023-11-19T06:50:04;15.83;;;4.17;;
16468;SDS011;8345;50.902;6.956;2023-11-19T06:52:32;12.87;;;3.63;;
16468;SDS011;8345;50.902;6.956;2023-11-19T06:54:59;10.23;;;2.83;;
16468;SDS011;8345;50.902;6.956;2023-11-19T06:57:26;11.00;;;3.70;;
16468;SDS011;8345;50.902;6.956;2023-11-19T06:59:54;12.40;;;3.53;;
16468;SDS011;8345;50.902;6.956;2023-11-19T07:02:21;14.23;;;3.63;;
16468;SDS011;8345;50.902;6.956;2023-11-19T07:04:50;10.53;;;4.10;;
16468;SDS011;8345;50.902;6.956;2023-11-19T07:07:17;12.47;;;3.63;;
16468;SDS011;8345;50.902;6.956;2023-11-19T07:09:45;12.60;;;3.97;;
16468;SDS011;8345;50.902;6.956;2023-11-19T07:12:13;10.93;;;3.57;;
16468;SDS011;8345;50.902;6.956;2023-11-19T07:14:40;15.87;;;4.20;;
16468;SDS011;8345;50.902;6.956;2023-11-19T07:17:08;11.83;;;4.20;;
16468;SDS011;8345;50.902;6.956;2023-11-19T07:19:35;14.90;;;3.93;;
16468;SDS011;8345;50.902;6.956;2023-11-19T07:22:04;13.07;;;4.10;;
16468;SDS011;8345;50.902;6.956;2023-11-19T07:24:32;13.53;;;3.73;;
16468;SDS011;8345;50.902;6.956;2023-11-19T07:26:59;14.03;;;4.20;;
16468;SDS011;8345;50.902;6.956;2023-11-19T07:29:29;10.43;;;3.63;;
16468;SDS011;8345;50.902;6.956;2023-11-19T07:31:56;13.17;;;3.97;;
16468;SDS011;8345;50.902;6.956;2023-11-19T07:34:24;11.03;;;3.70;;
16468;SDS011;8345;50.902;6.956;2023-11-19T07:36:51;14.47;;;3.80;;
16468;SDS011;8345;50.902;6.956;2023-11-19T07:39:20;13.00;;;3.23;;
16468;SDS011;8345;50.902;6.956;2023-11-19T07:41:47;13.10;;;3.57;;
16468;SDS011;8345;50.902;6.956;2023-11-19T07:44:14;15.40;;;3.70;;
16468;SDS011;8345;50.902;6.956;2023-11-19T07:46:41;10.33;;;3.40;;
16468;SDS011;8345;50.902;6.956;2023-11-19T07:49:10;14.70;;;3.97;;
16468;SDS011;8345;50.902;6.956;2023-11-19T07:51:37;13.57;;;3.70;;
16468;SDS011;8345;50.902;6.956;2023-11-19T07:54:04;16.50;;;3.67;;
16468;SDS011;8345;50.902;6.956;2023-11-19T07:56:33;16.00;;;3.77;;
16468;SDS011;8345;50.902;6.956;2023-11-19T07:59:01;13.23;;;4.00;;
16468;SDS011;8345;50.902;6.956;2023-11-19T08:01:28;14.83;;;4.03;;
16468;SDS011;8345;50.902;6.956;2023-11-19T08:03:56;15.10;;;3.53;;
16468;SDS011;8345;50.902;6.956;2023-11-19T08:06:23;12.73;;;4.00;;
16468;SDS011;8345;50.902;6.956;2023-11-19T08:08:50;19.47;;;4.27;;
16468;SDS011;8345;50.902;6.956;2023-11-19T08:11:18;13.53;;;3.37;;
16468;SDS011;8345;50.902;6.956;2023-11-19T08:13:46;13.07;;;3.80;;
16468;SDS011;8345;50.902;6.956;2023-11-19T08:16:13;12.43;;;4.30;;
16468;SDS011;8345;50.902;6.956;2023-11-19T08:18:41;14.53;;;4.03;;
16468;SDS011;8345;50.902;6.956;2023-11-19T08:21:08;15.03;;;3.50;;
16468;SDS011;8345;50.902;6.956;2023-11-19T08:23:36;9.73;;;3.40;;
16468;SDS011;8345;50.902;6.956;2023-11-19T08:26:04;15.27;;;4.53;;
16468;SDS011;8345;50.902;6.956;2023-11-19T08:28:31;18.87;;;4.67;;
16468;SDS011;8345;50.902;6.956;2023-11-19T08:31:00;13.17;;;4.30;;
16468;SDS011;8345;50.902;6.956;2023-11-19T08:33:29;16.73;;;3.83;;
16468;SDS011;8345;50.902;6.956;2023-11-19T08:35:56;16.13;;;3.87;;
16468;SDS011;8345;50.902;6.956;2023-11-19T08:38:24;13.00;;;3.57;;
16468;SDS011;8345;50.902;6.956;2023-11-19T08:40:51;16.97;;;4.47;;
16468;SDS011;8345;50.902;6.956;2023-11-19T08:43:18;15.07;;;4.10;;
16468;SDS011;8345;50.902;6.956;2023-11-19T08:45:45;12.93;;;4.03;;
16468;SDS011;8345;50.902;6.956;2023-11-19T08:48:14;12.13;;;3.90;;
16468;SDS011;8345;50.902;6.956;2023-11-19T08:50:41;13.73;;;3.27;;
16468;SDS011;8345;50.902;6.956;2023-11-19T08:53:08;22.00;;;4.67;;
16468;SDS011;8345;50.902;6.956;2023-11-19T08:55:36;15.63;;;3.57;;
16468;SDS011;8345;50.902;6.956;2023-11-19T08:58:03;15.93;;;4.87;;
16468;SDS011;8345;50.902;6.956;2023-11-19T09:00:31;15.03;;;3.73;;
16468;SDS011;8345;50.902;6.956;2023-11-19T09:02:58;15.10;;;4.07;;
16468;SDS011;8345;50.902;6.956;2023-11-19T09:05:26;13.93;;;4.40;;
16468;SDS011;8345;50.902;6.956;2023-11-19T09:07:54;11.67;;;3.33;;
16468;SDS011;8345;50.902;6.956;2023-11-19T09:10:21;12.47;;;3.33;;
16468;SDS011;8345;50.902;6.956;2023-11-19T09:12:48;12.67;;;3.77;;
16468;SDS011;8345;50.902;6.956;2023-11-19T09:15:15;14.57;;;4.40;;
16468;SDS011;8345;50.902;6.956;2023-11-19T09:17:42;9.83;;;3.83;;
16468;SDS011;8345;50.902;6.956;2023-11-19T09:20:10;11.83;;;3.40;;
16468;SDS011;8345;50.902;6.956;2023-11-19T09:22:41;13.50;;;3.53;;
16468;SDS011;8345;50.902;6.956;2023-11-19T09:25:08;12.70;;;3.63;;
16468;SDS011;8345;50.902;6.956;2023-11-19T09:27:36;16.80;;;4.13;;
16468;SDS011;8345;50.902;6.956;2023-11-19T09:30:03;12.33;;;3.87;;
16468;SDS011;8345;50.902;6.956;2023-11-19T09:32:31;12.63;;;3.97;;
16468;SDS011;8345;50.902;6.956;2023-11-19T09:34:58;19.10;;;3.87;;
16468;SDS011;8345;50.902;6.956;2023-11-19T09:37:25;17.97;;;4.27;;
16468;SDS011;8345;50.902;6.956;2023-11-19T09:39:54;17.00;;;4.10;;
16468;SDS011;8345;50.902;6.956;2023-11-19T09:42:21;17.33;;;4.43;;
16468;SDS011;8345;50.902;6.956;2023-11-19T09:44:50;15.53;;;4.03;;
16468;SDS011;8345;50.902;6.956;2023-11-19T09:47:18;14.70;;;4.03;;
16468;SDS011;8345;50.902;6.956;2023-11-19T09:49:46;14.57;;;3.77;;
16468;SDS011;8345;50.902;6.956;2023-11-19T09:52:13;15.87;;;3.77;;
16468;SDS011;8345;50.902;6.956;2023-11-19T09:54:41;15.57;;;4.07;;
16468;SDS011;8345;50.902;6.956;2023-11-19T09:57:09;17.27;;;4.43;;
16468;SDS011;8345;50.902;6.956;2023-11-19T09:59:38;12.17;;;3.70;;
16468;SDS011;8345;50.902;6.956;2023-11-19T10:02:06;12.93;;;4.23;;
16468;SDS011;8345;50.902;6.956;2023-11-19T10:04:34;13.03;;;3.70;;
16468;SDS011;8345;50.902;6.956;2023-11-19T10:07:03;17.23;;;4.17;;
16468;SDS011;8345;50.902;6.956;2023-11-19T10:09:30;13.23;;;4.13;;
16468;SDS011;8345;50.902;6.956;2023-11-19T10:11:57;19.63;;;5.03;;
16468;SDS011;8345;50.902;6.956;2023-11-19T10:14:28;12.20;;;3.73;;
16468;SDS011;8345;50.902;6.956;2023-11-19T10:16:57;15.57;;;3.77;;
16468;SDS011;8345;50.902;6.956;2023-11-19T10:19:29;11.43;;;4.23;;
16468;SDS011;8345;50.902;6.956;2023-11-19T10:21:56;17.97;;;4.50;;
16468;SDS011;8345;50.902;6.956;2023-11-19T10:24:31;15.57;;;3.80;;
16468;SDS011;8345;50.902;6.956;2023-11-19T10:26:59;14.57;;;4.40;;
16468;SDS011;8345;50.902;6.956;2023-11-19T10:29:30;11.50;;;3.43;;
16468;SDS011;8345;50.902;6.956;2023-11-19T10:31:58;11.83;;;3.90;;
16468;SDS011;8345;50.902;6.956;2023-11-19T10:34:25;14.20;;;3.50;;
16468;SDS011;8345;50.902;6.956;2023-11-19T10:36:53;13.87;;;3.80;;
16468;SDS011;8345;50.902;6.956;2023-11-19T10:39:20;13.53;;;4.43;;
16468;SDS011;8345;50.902;6.956;2023-11-19T10:41:48;14.37;;;3.60;;
16468;SDS011;8345;50.902;6.956;2023-11-19T10:47:09;17.20;;;4.00;;
16468;SDS011;8345;50.902;6.956;2023-11-19T10:49:37;11.03;;;3.30;;
16468;SDS011;8345;50.902;6.956;2023-11-19T10:52:05;10.83;;;3.70;;
16468;SDS011;8345;50.902;6.956;2023-11-19T10:54:34;14.17;;;3.70;;
16468;SDS011;8345;50.902;6.956;2023-11-19T10:57:02;12.83;;;4.07;;
16468;SDS011;8345;50.902;6.956;2023-11-19T10:59:30;13.37;;;3.80;;
16468;SDS011;8345;50.902;6.956;2023-11-19T11:01:57;14.83;;;4.30;;
16468;SDS011;8345;50.902;6.956;2023-11-19T11:04:27;14.10;;;3.80;;
16468;SDS011;8345;50.902;6.956;2023-11-19T11:06:56;12.63;;;3.47;;
16468;SDS011;8345;50.902;6.956;2023-11-19T11:09:25;12.17;;;3.80;;
16468;SDS011;8345;50.902;6.956;2023-11-19T11:11:53;14.83;;;3.80;;
16468;SDS011;8345;50.902;6.956;2023-11-19T11:14:22;15.93;;;4.10;;
16468;SDS011;8345;50.902;6.956;2023-11-19T11:16:51;17.63;;;4.47;;
16468;SDS011;8345;50.902;6.956;2023-11-19T11:19:20;15.00;;;4.07;;
16468;SDS011;8345;50.902;6.956;2023-11-19T11:21:50;14.10;;;3.83;;
16468;SDS011;8345;50.902;6.956;2023-11-19T11:27:12;12.17;;;3.47;;
16468;SDS011;8345;50.902;6.956;2023-11-19T11:29:45;13.00;;;3.73;;
16468;SDS011;8345;50.902;6.956;2023-11-19T11:32:17;14.10;;;3.83;;
16468;SDS011;8345;50.902;6.956;2023-11-19T11:34:53;13.73;;;3.97;;
16468;SDS011;8345;50.902;6.956;2023-11-19T11:37:26;12.50;;;3.63;;
16468;SDS011;8345;50.902;6.956;2023-11-19T11:39:56;12.83;;;3.73;;
16468;SDS011;8345;50.902;6.956;2023-11-19T11:42:34;12.27;;;3.90;;
16468;SDS011;8345;50.902;6.956;2023-11-19T11:45:02;14.70;;;3.10;;
16468;SDS011;8345;50.902;6.956;2023-11-19T11:50:31;13.37;;;3.50;;
16468;SDS011;8345;50.902;6.956;2023-11-19T11:53:14;13.03;;;3.27;;
16468;SDS011;8345;50.902;6.956;2023-11-19T11:55:52;11.50;;;2.73;;
16468;SDS011;8345;50.902;6.956;2023-11-19T11:58:20;8.77;;;2.60;;
16468;SDS011;8345;50.902;6.956;2023-11-19T12:00:47;10.03;;;3.00;;
16468;SDS011;8345;50.902;6.956;2023-11-19T12:03:16;9.03;;;2.90;;
16468;SDS011;8345;50.902;6.956;2023-11-19T12:05:47;10.00;;;2.57;;
16468;SDS011;8345;50.902;6.956;2023-11-19T12:08:18;8.67;;;2.93;;
16468;SDS011;8345;50.902;6.956;2023-11-19T12:10:46;11.03;;;3.83;;
16468;SDS011;8345;50.902;6.956;2023-11-19T12:13:13;8.10;;;2.60;;
16468;SDS011;8345;50.902;6.956;2023-11-19T12:18:23;9.73;;;2.93;;
16468;SDS011;8345;50.902;6.956;2023-11-19T12:20:51;8.23;;;2.60;;
16468;SDS011;8345;50.902;6.956;2023-11-19T12:23:19;10.70;;;3.50;;
16468;SDS011;8345;50.902;6.956;2023-11-19T12:25:46;11.60;;;3.53;;
16468;SDS011;8345;50.902;6.956;2023-11-19T12:28:13;11.37;;;3.73;;
16468;SDS011;8345;50.902;6.956;2023-11-19T12:30:42;10.20;;;2.90;;
16468;SDS011;8345;50.902;6.956;2023-11-19T12:33:09;10.57;;;3.40;;
16468;SDS011;8345;50.902;6.956;2023-11-19T12:35:38;11.17;;;3.53;;
16468;SDS011;8345;50.902;6.956;2023-11-19T12:38:05;9.70;;;3.37;;
16468;SDS011;8345;50.902;6.956;2023-11-19T12:40:34;8.17;;;3.33;;
16468;SDS011;8345;50.902;6.956;2023-11-19T12:43:02;13.53;;;3.63;;
16468;SDS011;8345;50.902;6.956;2023-11-19T12:45:34;9.47;;;3.20;;
16468;SDS011;8345;50.902;6.956;2023-11-19T12:48:04;13.43;;;3.40;;
16468;SDS011;8345;50.902;6.956;2023-11-19T12:53:14;11.30;;;2.73;;
16468;SDS011;8345;50.902;6.956;2023-11-19T12:55:42;12.77;;;2.93;;
16468;SDS011;8345;50.902;6.956;2023-11-19T12:58:09;10.30;;;3.07;;
16468;SDS011;8345;50.902;6.956;2023-11-19T13:00:37;10.23;;;2.97;;
16468;SDS011;8345;50.902;6.956;2023-11-19T13:03:04;8.07;;;2.93;;
16468;SDS011;8345;50.902;6.956;2023-11-19T13:05:31;9.10;;;2.60;;
16468;SDS011;8345;50.902;6.956;2023-11-19T13:07:59;12.30;;;3.33;;
16468;SDS011;8345;50.902;6.956;2023-11-19T13:10:27;7.57;;;2.73;;
16468;SDS011;8345;50.902;6.956;2023-11-19T13:13:05;10.97;;;3.00;;
16468;SDS011;8345;50.902;6.956;2023-11-19T13:15:33;8.23;;;2.87;;
16468;SDS011;8345;50.902;6.956;2023-11-19T13:18:00;11.17;;;3.20;;
16468;SDS011;8345;50.902;6.956;2023-11-19T13:20:28;7.90;;;3.40;;
16468;SDS011;8345;50.902;6.956;2023-11-19T13:22:57;10.63;;;3.27;;
16468;SDS011;8345;50.902;6.956;2023-11-19T13:25:24;10.97;;;3.20;;
16468;SDS011;8345;50.902;6.956;2023-11-19T13:27:52;10.53;;;3.17;;
16468;SDS011;8345;50.902;6.956;2023-11-19T13:30:21;10.60;;;3.50;;
16468;SDS011;8345;50.902;6.956;2023-11-19T13:32:49;12.80;;;3.90;;
16468;SDS011;8345;50.902;6.956;2023-11-19T13:35:16;12.97;;;3.47;;
16468;SDS011;8345;50.902;6.956;2023-11-19T13:37:44;12.20;;;3.37;;
16468;SDS011;8345;50.902;6.956;2023-11-19T13:40:11;12.73;;;3.40;;
16468;SDS011;8345;50.902;6.956;2023-11-19T13:42:40;11.47;;;3.23;;
16468;SDS011;8345;50.902;6.956;2023-11-19T13:45:08;13.33;;;3.27;;
16468;SDS011;8345;50.902;6.956;2023-11-19T13:47:38;11.97;;;3.97;;
16468;SDS011;8345;50.902;6.956;2023-11-19T13:50:07;13.33;;;3.10;;
16468;SDS011;8345;50.902;6.956;2023-11-19T13:52:34;11.70;;;3.37;;
16468;SDS011;8345;50.902;6.956;2023-11-19T13:55:03;13.13;;;3.73;;
16468;SDS011;8345;50.902;6.956;2023-11-19T13:57:31;10.97;;;3.73;;
16468;SDS011;8345;50.902;6.956;2023-11-19T13:59:59;10.93;;;3.40;;
16468;SDS011;8345;50.902;6.956;2023-11-19T14:02:28;13.70;;;3.30;;
16468;SDS011;8345;50.902;6.956;2023-11-19T14:04:56;14.47;;;3.83;;
16468;SDS011;8345;50.902;6.956;2023-11-19T14:07:24;10.23;;;3.60;;
16468;SDS011;8345;50.902;6.956;2023-11-19T14:09:51;8.83;;;3.07;;
16468;SDS011;8345;50.902;6.956;2023-11-19T14:12:18;12.10;;;4.07;;
16468;SDS011;8345;50.902;6.956;2023-11-19T14:14:45;12.47;;;3.57;;
16468;SDS011;8345;50.902;6.956;2023-11-19T14:17:12;12.40;;;3.57;;
16468;SDS011;8345;50.902;6.956;2023-11-19T14:19:40;11.07;;;3.20;;
16468;SDS011;8345;50.902;6.956;2023-11-19T14:22:09;9.90;;;2.93;;
16468;SDS011;8345;50.902;6.956;2023-11-19T14:24:36;14.13;;;4.10;;
16468;SDS011;8345;50.902;6.956;2023-11-19T14:27:05;12.87;;;3.37;;
16468;SDS011;8345;50.902;6.956;2023-11-19T14:29:32;12.33;;;3.40;;
16468;SDS011;8345;50.902;6.956;2023-11-19T14:32:00;10.97;;;3.20;;
16468;SDS011;8345;50.902;6.956;2023-11-19T14:34:27;6.83;;;2.67;;
16468;SDS011;8345;50.902;6.956;2023-11-19T14:36:55;13.73;;;3.57;;
16468;SDS011;8345;50.902;6.956;2023-11-19T14:39:23;15.23;;;3.30;;
16468;SDS011;8345;50.902;6.956;2023-11-19T14:41:51;10.03;;;3.00;;
16468;SDS011;8345;50.902;6.956;2023-11-19T14:44:22;8.47;;;2.63;;
16468;SDS011;8345;50.902;6.956;2023-11-19T14:46:50;10.77;;;3.40;;
16468;SDS011;8345;50.902;6.956;2023-11-19T14:49:17;9.57;;;3.20;;
16468;SDS011;8345;50.902;6.956;2023-11-19T14:51:44;9.70;;;3.13;;
16468;SDS011;8345;50.902;6.956;2023-11-19T14:54:11;10.17;;;2.87;;
16468;SDS011;8345;50.902;6.956;2023-11-19T14:56:41;8.23;;;2.90;;
16468;SDS011;8345;50.902;6.956;2023-11-19T14:59:08;10.67;;;3.57;;
16468;SDS011;8345;50.902;6.956;2023-11-19T15:01:35;12.10;;;3.40;;
16468;SDS011;8345;50.902;6.956;2023-11-19T15:04:02;11.23;;;2.63;;
16468;SDS011;8345;50.902;6.956;2023-11-19T15:06:30;12.93;;;3.40;;
16468;SDS011;8345;50.902;6.956;2023-11-19T15:08:58;9.27;;;3.10;;
16468;SDS011;8345;50.902;6.956;2023-11-19T15:11:25;12.73;;;3.80;;